createdAt,value
2022-11-22T00:00:19.038Z,42.70
2022-11-22T00:01:19.103Z,44.15
2022-11-22T00:02:19.122Z,43.34
2022-11-22T00:03:19.001Z,43.51
2022-11-22T00:04:19.001Z,43.34
2022-11-22T00:05:18.982Z,42.38
2022-11-22T00:06:18.965Z,43.18
2022-11-22T00:07:19.017Z,43.02
2022-11-22T00:08:18.971Z,42.86
2022-11-22T00:09:18.994Z,42.70
2022-11-22T00:10:18.913Z,44.31
2022-11-22T00:11:19.898Z,43.18
2022-11-22T00:12:18.880Z,42.70
2022-11-22T00:13:18.946Z,42.70
2022-11-22T00:14:18.951Z,43.18
2022-11-22T00:15:18.908Z,42.38
2022-11-22T00:16:18.884Z,42.06
2022-11-22T00:17:18.897Z,42.70
2022-11-22T00:18:18.926Z,42.70
2022-11-22T00:19:18.881Z,45.12
2022-11-22T00:20:18.845Z,45.44
2022-11-22T00:21:18.841Z,43.83
2022-11-22T00:22:18.872Z,44.15
2022-11-22T00:23:18.901Z,43.83
2022-11-22T00:24:18.796Z,43.67
2022-11-22T00:25:18.820Z,43.67
2022-11-22T00:26:18.821Z,43.34
2022-11-22T00:27:18.814Z,43.02
2022-11-22T00:28:18.774Z,43.51
2022-11-22T00:29:18.801Z,43.02
2022-11-22T00:30:18.760Z,43.18
2022-11-22T00:31:18.756Z,43.18
2022-11-22T00:32:18.763Z,43.18
2022-11-22T00:33:18.804Z,43.83
2022-11-22T00:34:18.786Z,43.18
2022-11-22T00:35:18.722Z,42.86
2022-11-22T00:36:18.771Z,42.70
2022-11-22T00:37:18.709Z,43.18
2022-11-22T00:38:18.679Z,42.86
2022-11-22T00:39:18.709Z,43.18
2022-11-22T00:40:18.687Z,43.51
2022-11-22T00:41:18.662Z,42.70
2022-11-22T00:42:18.708Z,43.34
2022-11-22T00:43:18.688Z,44.47
2022-11-22T00:44:18.652Z,44.79
2022-11-22T00:45:18.664Z,44.15
2022-11-22T00:46:18.740Z,44.47
2022-11-22T00:47:18.640Z,43.34
2022-11-22T00:48:18.713Z,43.34
2022-11-22T00:49:18.656Z,43.51
2022-11-22T00:50:18.605Z,44.15
2022-11-22T00:51:18.596Z,45.76
2022-11-22T00:52:18.665Z,47.21
2022-11-22T00:53:18.582Z,45.60
2022-11-22T00:54:18.609Z,45.12
2022-11-22T00:55:18.560Z,46.41
2022-11-22T00:56:18.614Z,45.76
2022-11-22T00:57:19.509Z,44.47
2022-11-22T00:58:50.974Z,44.63
2022-11-22T00:59:18.597Z,43.67
2022-11-22T01:00:18.565Z,43.18
2022-11-22T01:01:18.714Z,43.18
2022-11-22T01:02:18.523Z,42.38
2022-11-22T01:03:18.527Z,42.22
2022-11-22T01:04:18.553Z,43.02
2022-11-22T01:05:18.477Z,43.02
2022-11-22T01:06:18.470Z,42.70
2022-11-22T01:07:18.599Z,42.54
2022-11-22T01:08:18.458Z,43.18
2022-11-22T01:09:18.503Z,42.22
2022-11-22T01:10:18.521Z,42.38
2022-11-22T01:11:18.444Z,43.02
2022-11-22T01:12:18.414Z,43.99
2022-11-22T01:13:18.415Z,43.83
2022-11-22T01:14:18.452Z,43.67
2022-11-22T01:15:18.481Z,43.67
2022-11-22T01:16:18.391Z,43.67
2022-11-22T01:17:18.408Z,43.02
2022-11-22T01:18:18.448Z,43.02
2022-11-22T01:19:19.388Z,46.89
2022-11-22T01:20:18.381Z,44.63
2022-11-22T01:21:18.368Z,43.51
2022-11-22T01:22:18.399Z,43.51
2022-11-22T01:23:18.423Z,43.02
2022-11-22T01:24:18.376Z,47.21
2022-11-22T01:25:18.350Z,43.34
2022-11-22T01:26:18.348Z,44.15
2022-11-22T01:27:18.309Z,43.51
2022-11-22T01:28:18.386Z,43.02
2022-11-22T01:29:19.345Z,42.54
2022-11-22T01:30:18.303Z,43.18
2022-11-22T01:31:18.281Z,43.18
2022-11-22T01:32:18.283Z,43.18
2022-11-22T01:33:18.306Z,43.18
2022-11-22T01:34:18.270Z,43.02
2022-11-22T01:35:18.289Z,42.70
2022-11-22T01:36:18.249Z,42.54
2022-11-22T01:37:18.343Z,43.34
2022-11-22T01:38:18.202Z,43.99
2022-11-22T01:39:18.234Z,44.79
2022-11-22T01:40:18.246Z,46.08
2022-11-22T01:41:18.218Z,46.25
2022-11-22T01:42:18.195Z,45.60
2022-11-22T01:43:18.189Z,46.73
2022-11-22T01:44:18.208Z,47.05
2022-11-22T01:45:18.228Z,47.05
2022-11-22T01:46:18.166Z,46.41
2022-11-22T01:47:18.170Z,46.25
2022-11-22T01:48:18.195Z,47.21
2022-11-22T01:49:18.181Z,43.51
2022-11-22T01:50:18.152Z,43.51
2022-11-22T01:51:18.151Z,43.18
2022-11-22T01:52:18.120Z,43.18
2022-11-22T01:53:18.158Z,43.18
2022-11-22T01:54:18.121Z,44.96
2022-11-22T01:55:18.186Z,43.18
2022-11-22T01:56:18.090Z,42.38
2022-11-22T01:57:18.168Z,42.38
2022-11-22T01:58:18.152Z,42.54
2022-11-22T01:59:18.109Z,42.70
2022-11-22T02:00:18.074Z,41.73
2022-11-22T02:01:18.137Z,41.57
2022-11-22T02:02:18.096Z,41.73
2022-11-22T02:03:18.046Z,41.73
2022-11-22T02:04:18.057Z,41.89
2022-11-22T02:05:18.033Z,42.22
2022-11-22T02:06:18.060Z,42.38
2022-11-22T02:07:18.050Z,42.22
2022-11-22T02:08:18.019Z,42.70
2022-11-22T02:09:18.031Z,43.18
2022-11-22T02:10:18.011Z,44.31
2022-11-22T02:11:17.994Z,43.83
2022-11-22T02:12:18.009Z,44.47
2022-11-22T02:13:17.994Z,43.02
2022-11-22T02:14:17.969Z,42.70
2022-11-22T02:15:17.954Z,44.31
2022-11-22T02:16:18.007Z,42.70
2022-11-22T02:17:17.998Z,42.38
2022-11-22T02:18:17.962Z,42.06
2022-11-22T02:19:17.928Z,42.54
2022-11-22T02:20:17.952Z,42.54
2022-11-22T02:21:17.912Z,42.38
2022-11-22T02:22:17.927Z,41.89
2022-11-22T02:23:17.915Z,41.57
2022-11-22T02:24:17.920Z,41.89
2022-11-22T02:25:17.869Z,41.89
2022-11-22T02:26:17.880Z,41.73
2022-11-22T02:27:17.919Z,41.57
2022-11-22T02:28:49.794Z,41.73
2022-11-22T02:29:17.840Z,41.73
2022-11-22T02:30:17.902Z,41.89
2022-11-22T02:31:17.821Z,41.57
2022-11-22T02:32:18.836Z,42.06
2022-11-22T02:33:17.829Z,42.22
2022-11-22T02:34:17.827Z,42.22
2022-11-22T02:35:17.793Z,42.06
2022-11-22T02:36:17.818Z,42.06
2022-11-22T02:37:17.780Z,41.89
2022-11-22T02:38:17.771Z,42.06
2022-11-22T02:39:17.799Z,43.67
2022-11-22T02:40:17.770Z,43.67
2022-11-22T02:41:17.744Z,43.34
2022-11-22T02:42:17.741Z,42.38
2022-11-22T02:43:17.731Z,42.22
2022-11-22T02:44:17.749Z,41.89
2022-11-22T02:45:17.731Z,41.73
2022-11-22T02:46:17.711Z,41.41
2022-11-22T02:47:17.714Z,41.41
2022-11-22T02:48:17.690Z,41.89
2022-11-22T02:49:17.704Z,41.25
2022-11-22T02:50:17.703Z,41.89
2022-11-22T02:51:17.670Z,41.73
2022-11-22T02:52:17.676Z,42.06
2022-11-22T02:53:17.648Z,42.38
2022-11-22T02:54:17.718Z,41.89
2022-11-22T02:55:17.656Z,42.06
2022-11-22T02:56:17.632Z,41.57
2022-11-22T02:57:17.660Z,41.41
2022-11-22T02:58:17.623Z,41.25
2022-11-22T02:59:17.607Z,41.57
2022-11-22T03:00:17.604Z,41.73
2022-11-22T03:01:17.670Z,41.89
2022-11-22T03:02:17.610Z,42.22
2022-11-22T03:03:17.589Z,42.22
2022-11-22T03:04:17.621Z,42.38
2022-11-22T03:05:17.580Z,43.51
2022-11-22T03:06:17.586Z,43.83
2022-11-22T03:07:17.633Z,45.12
2022-11-22T03:08:17.547Z,47.53
2022-11-22T03:09:17.561Z,43.67
2022-11-22T03:10:17.524Z,43.02
2022-11-22T03:11:17.574Z,45.60
2022-11-22T03:12:17.519Z,44.31
2022-11-22T03:13:17.522Z,43.51
2022-11-22T03:14:17.502Z,42.38
2022-11-22T03:15:17.506Z,43.18
2022-11-22T03:16:17.514Z,42.54
2022-11-22T03:17:17.470Z,42.86
2022-11-22T03:18:17.510Z,42.70
2022-11-22T03:19:17.454Z,42.70
2022-11-22T03:20:17.455Z,42.86
2022-11-22T03:21:17.467Z,42.54
2022-11-22T03:22:17.436Z,41.57
2022-11-22T03:23:17.509Z,41.73
2022-11-22T03:24:17.420Z,42.54
2022-11-22T03:25:17.464Z,43.99
2022-11-22T03:26:17.501Z,46.57
2022-11-22T03:27:17.398Z,42.38
2022-11-22T03:28:17.409Z,42.06
2022-11-22T03:29:17.388Z,42.38
2022-11-22T03:30:17.384Z,42.06
2022-11-22T03:31:17.380Z,42.38
2022-11-22T03:32:17.362Z,44.96
2022-11-22T03:33:17.371Z,42.86
2022-11-22T03:34:17.340Z,44.96
2022-11-22T03:35:17.386Z,43.34
2022-11-22T03:36:17.336Z,44.47
2022-11-22T03:37:17.354Z,45.44
2022-11-22T03:38:17.326Z,45.76
2022-11-22T03:39:17.328Z,44.47
2022-11-22T03:40:17.314Z,42.54
2022-11-22T03:41:17.308Z,44.31
2022-11-22T03:42:21.629Z,41.73
2022-11-22T03:43:18.279Z,42.22
2022-11-22T03:44:17.324Z,42.54
2022-11-22T03:45:17.320Z,43.02
2022-11-22T03:46:17.276Z,42.22
2022-11-22T03:47:17.240Z,41.89
2022-11-22T04:03:54.583Z,43.18
2022-11-22T04:04:54.563Z,45.28
2022-11-22T04:05:54.571Z,45.28
2022-11-22T04:06:54.539Z,49.15
2022-11-22T04:07:54.548Z,45.12
2022-11-22T04:08:54.607Z,44.79
2022-11-22T04:09:55.678Z,43.51
2022-11-22T04:10:55.667Z,43.02
2022-11-22T04:11:55.682Z,43.67
2022-11-22T04:12:55.644Z,43.67
2022-11-22T04:13:55.657Z,44.63
2022-11-22T04:14:55.609Z,49.15
2022-11-22T04:15:55.636Z,45.76
2022-11-22T04:16:55.597Z,51.88
2022-11-22T04:17:55.631Z,47.86
2022-11-22T04:18:55.694Z,46.73
2022-11-22T04:19:55.616Z,48.18
2022-11-22T04:20:55.591Z,51.08
2022-11-22T04:21:55.570Z,44.79
2022-11-22T04:22:55.576Z,55.43
2022-11-22T04:23:55.593Z,47.37
2022-11-22T04:24:55.663Z,44.96
2022-11-22T04:25:55.576Z,53.98
2022-11-22T04:26:55.599Z,50.43
2022-11-22T04:27:55.543Z,53.98
2022-11-22T04:29:09.127Z,49.15
2022-11-22T04:29:57.520Z,46.08
2022-11-22T04:30:55.534Z,44.96
2022-11-22T04:31:55.559Z,43.99
2022-11-22T04:32:55.500Z,48.18
2022-11-22T04:33:55.517Z,49.95
2022-11-22T04:34:55.491Z,51.24
2022-11-22T04:35:55.497Z,47.05
2022-11-22T04:36:55.456Z,49.47
2022-11-22T04:37:55.489Z,47.53
2022-11-22T04:38:55.479Z,56.40
2022-11-22T04:39:55.475Z,53.82
2022-11-22T04:40:55.431Z,47.70
2022-11-22T04:41:55.435Z,47.05
2022-11-22T04:42:55.412Z,53.82
2022-11-22T04:43:55.431Z,57.52
2022-11-22T04:44:55.379Z,52.69
2022-11-22T04:45:55.389Z,46.73
2022-11-22T04:46:55.431Z,47.86
2022-11-22T04:47:55.380Z,59.46
2022-11-22T04:48:55.372Z,49.47
2022-11-22T04:49:55.387Z,51.24
2022-11-22T04:50:55.339Z,55.11
2022-11-22T04:51:55.353Z,47.86
2022-11-22T04:52:55.362Z,52.69
2022-11-22T04:53:55.320Z,54.62
2022-11-22T04:54:55.350Z,61.71
2022-11-22T04:55:55.329Z,45.12
2022-11-22T04:56:55.330Z,46.25
2022-11-22T04:57:59.529Z,49.47
2022-11-22T04:58:57.275Z,47.05
2022-11-22T04:59:55.311Z,47.05
2022-11-22T05:00:55.328Z,46.08
2022-11-22T05:01:55.294Z,55.27
2022-11-22T05:02:55.268Z,48.02
2022-11-22T05:03:55.246Z,50.27
2022-11-22T05:04:55.280Z,43.83
2022-11-22T05:05:55.225Z,45.60
2022-11-22T05:06:55.262Z,59.30
2022-11-22T05:07:55.236Z,47.37
2022-11-22T05:08:55.804Z,50.92
2022-11-22T05:09:55.198Z,53.66
2022-11-22T05:10:55.189Z,48.18
2022-11-22T05:11:55.198Z,55.11
2022-11-22T05:12:55.218Z,54.95
2022-11-22T05:13:55.204Z,52.53
2022-11-22T05:14:55.180Z,55.43
2022-11-22T05:15:55.179Z,51.24
2022-11-22T05:16:55.156Z,46.73
2022-11-22T05:17:55.170Z,55.75
2022-11-22T05:18:55.143Z,50.76
2022-11-22T05:19:55.142Z,60.26
2022-11-22T05:20:55.129Z,56.56
2022-11-22T05:21:55.104Z,47.21
2022-11-22T05:22:55.153Z,48.82
2022-11-22T05:23:55.140Z,46.25
2022-11-22T05:24:55.143Z,57.69
2022-11-22T05:25:55.110Z,57.04
2022-11-22T05:26:55.118Z,61.87
2022-11-22T05:27:55.107Z,44.63
2022-11-22T05:28:55.069Z,56.40
2022-11-22T05:29:55.060Z,51.24
2022-11-22T05:30:55.048Z,53.33
2022-11-22T05:31:55.057Z,51.08
2022-11-22T05:32:55.040Z,54.46
2022-11-22T05:33:55.067Z,60.75
2022-11-22T05:34:55.025Z,53.82
2022-11-22T05:35:55.026Z,55.75
2022-11-22T05:36:55.007Z,53.01
2022-11-22T05:37:55.041Z,53.01
2022-11-22T05:38:55.006Z,56.07
2022-11-22T05:39:54.985Z,50.43
2022-11-22T05:40:55.013Z,65.42
2022-11-22T05:41:55.818Z,53.01
2022-11-22T05:42:54.980Z,58.01
2022-11-22T05:43:54.965Z,60.26
2022-11-22T05:44:54.945Z,57.69
2022-11-22T05:45:55.008Z,49.47
2022-11-22T05:46:55.049Z,51.72
2022-11-22T05:47:54.934Z,67.35
2022-11-22T05:48:54.947Z,54.30
2022-11-22T05:49:54.974Z,52.21
2022-11-22T05:50:55.951Z,62.68
2022-11-22T05:51:54.893Z,64.78
2022-11-22T05:52:54.906Z,59.94
2022-11-22T05:53:54.899Z,52.21
2022-11-22T05:54:54.879Z,60.59
2022-11-22T05:55:54.872Z,51.40
2022-11-22T05:56:54.890Z,49.47
2022-11-22T05:57:54.871Z,49.31
2022-11-22T05:58:54.841Z,49.47
2022-11-22T05:59:54.833Z,55.11
2022-11-22T06:00:54.819Z,54.14
2022-11-22T06:01:54.871Z,57.20
2022-11-22T06:02:54.808Z,55.43
2022-11-22T06:03:54.789Z,61.87
2022-11-22T06:04:54.879Z,59.46
2022-11-22T06:05:54.784Z,60.10
2022-11-22T06:06:54.832Z,58.49
2022-11-22T06:07:54.839Z,61.07
2022-11-22T06:08:54.768Z,59.14
2022-11-22T06:09:54.743Z,62.20
2022-11-22T06:10:54.743Z,61.39
2022-11-22T06:11:54.752Z,66.55
2022-11-22T06:12:54.755Z,64.78
2022-11-22T06:13:54.743Z,55.43
2022-11-22T06:14:54.732Z,54.62
2022-11-22T06:15:54.731Z,55.59
2022-11-22T06:16:54.760Z,68.64
2022-11-22T06:17:54.763Z,64.13
2022-11-22T06:18:54.701Z,61.23
2022-11-22T06:19:54.778Z,65.90
2022-11-22T06:20:54.725Z,59.94
2022-11-22T06:21:54.680Z,59.30
2022-11-22T06:22:54.761Z,65.42
2022-11-22T06:23:54.668Z,69.29
2022-11-22T06:24:54.688Z,61.71
2022-11-22T06:25:54.761Z,67.68
2022-11-22T06:26:54.743Z,64.94
2022-11-22T06:27:54.647Z,65.58
2022-11-22T06:28:54.666Z,63.00
2022-11-22T06:29:54.641Z,55.11
2022-11-22T06:30:54.605Z,67.51
2022-11-22T06:31:55.911Z,64.29
2022-11-22T06:32:54.596Z,53.01
2022-11-22T06:33:54.599Z,66.06
2022-11-22T06:34:54.613Z,68.00
2022-11-22T06:35:54.604Z,52.05
2022-11-22T06:36:54.633Z,60.59
2022-11-22T06:38:00.386Z,56.07
2022-11-22T06:38:56.581Z,69.13
2022-11-22T06:39:54.534Z,61.87
2022-11-22T06:40:54.527Z,64.29
2022-11-22T06:41:54.532Z,62.52
2022-11-22T06:42:54.534Z,47.70
2022-11-22T06:43:54.523Z,62.04
2022-11-22T06:44:54.487Z,56.07
2022-11-22T06:45:54.504Z,59.78
2022-11-22T06:46:54.476Z,61.87
2022-11-22T06:47:54.510Z,67.19
2022-11-22T06:48:54.485Z,65.26
2022-11-22T06:49:54.457Z,61.71
2022-11-22T06:50:54.505Z,62.84
2022-11-22T06:51:54.434Z,58.97
2022-11-22T06:52:54.497Z,62.68
2022-11-22T06:53:54.461Z,61.23
2022-11-22T06:54:54.578Z,60.26
2022-11-22T06:55:59.781Z,60.59
2022-11-22T06:56:56.394Z,59.78
2022-11-22T06:57:54.420Z,58.65
2022-11-22T06:58:54.438Z,56.88
2022-11-22T06:59:54.422Z,55.59
2022-11-22T07:00:54.487Z,61.39
2022-11-22T07:01:54.458Z,61.87
2022-11-22T07:02:54.379Z,61.23
2022-11-22T07:03:54.402Z,59.62
2022-11-22T07:05:23.310Z,67.03
2022-11-22T07:05:56.372Z,59.30
2022-11-22T07:06:54.326Z,62.20
2022-11-22T07:07:56.781Z,48.66
2022-11-22T07:08:55.337Z,50.27
2022-11-22T07:09:56.602Z,63.16
2022-11-22T07:10:55.281Z,58.49
2022-11-22T07:11:54.296Z,61.07
2022-11-22T07:12:54.309Z,60.75
2022-11-22T07:13:54.300Z,55.91
2022-11-22T07:15:26.687Z,60.91
2022-11-22T07:15:54.275Z,50.27
2022-11-22T07:16:54.301Z,56.72
2022-11-22T07:17:54.281Z,61.07
2022-11-22T07:18:54.220Z,53.98
2022-11-22T07:19:54.235Z,50.27
2022-11-22T07:20:54.197Z,61.71
2022-11-22T07:21:54.218Z,63.65
2022-11-22T07:22:54.193Z,55.59
2022-11-22T07:23:54.249Z,59.46
2022-11-22T07:24:54.246Z,58.49
2022-11-22T07:25:54.199Z,60.75
2022-11-22T07:26:54.222Z,53.82
2022-11-22T07:27:54.171Z,50.11
2022-11-22T07:28:54.154Z,48.50
2022-11-22T07:29:54.153Z,60.75
2022-11-22T07:30:54.180Z,52.21
2022-11-22T07:31:54.155Z,55.91
2022-11-22T07:32:54.138Z,63.49
2022-11-22T07:33:55.150Z,52.53
2022-11-22T07:34:54.116Z,50.11
2022-11-22T07:35:54.120Z,49.47
2022-11-22T07:36:59.097Z,57.85
2022-11-22T07:37:56.140Z,49.63
2022-11-22T07:38:54.101Z,65.74
2022-11-22T07:39:54.085Z,57.20
2022-11-22T07:40:54.069Z,55.11
2022-11-22T07:41:54.048Z,54.62
2022-11-22T07:42:58.277Z,52.85
2022-11-22T07:43:55.135Z,57.69
2022-11-22T07:44:54.022Z,53.98
2022-11-22T07:45:54.841Z,59.14
2022-11-22T07:46:54.032Z,66.39
2022-11-22T07:47:54.004Z,63.16
2022-11-22T07:48:54.037Z,56.88
2022-11-22T07:49:54.014Z,64.45
2022-11-22T07:50:53.994Z,64.94
2022-11-22T07:51:53.994Z,52.05
2022-11-22T07:52:53.994Z,56.40
2022-11-22T07:53:53.994Z,57.69
2022-11-22T07:54:53.974Z,62.52
2022-11-22T07:55:54.002Z,61.23
2022-11-22T07:56:53.937Z,56.88
2022-11-22T07:57:53.940Z,55.43
2022-11-22T07:58:54.014Z,60.75
2022-11-22T07:59:53.918Z,60.75
2022-11-22T08:00:53.995Z,49.47
2022-11-22T08:01:54.139Z,55.75
2022-11-22T08:02:54.010Z,60.42
2022-11-22T08:03:53.902Z,57.85
2022-11-22T08:04:53.939Z,58.65
2022-11-22T08:05:53.912Z,49.31
2022-11-22T08:06:53.999Z,47.86
2022-11-22T08:07:53.908Z,54.46
2022-11-22T08:09:00.357Z,57.20
2022-11-22T08:09:55.890Z,49.31
2022-11-22T08:10:53.843Z,48.66
2022-11-22T08:11:53.880Z,51.08
2022-11-22T08:12:53.834Z,49.31
2022-11-22T08:13:53.870Z,61.71
2022-11-22T08:14:53.875Z,53.33
2022-11-22T08:15:54.847Z,59.94
2022-11-22T08:16:54.938Z,53.50
2022-11-22T08:17:53.796Z,49.95
2022-11-22T08:18:53.876Z,61.23
2022-11-22T08:19:53.880Z,57.69
2022-11-22T08:20:53.773Z,55.59
2022-11-22T08:21:58.244Z,56.88
2022-11-22T08:22:54.765Z,48.34
2022-11-22T08:23:53.776Z,55.43
2022-11-22T08:24:53.774Z,60.26
2022-11-22T08:25:53.775Z,48.34
2022-11-22T08:26:53.752Z,54.30
2022-11-22T08:28:25.672Z,57.69
2022-11-22T08:28:53.766Z,66.06
2022-11-22T08:29:53.757Z,62.36
2022-11-22T08:30:53.731Z,58.01
2022-11-22T08:31:53.687Z,54.30
2022-11-22T08:32:53.719Z,64.78
2022-11-22T08:33:53.708Z,60.75
2022-11-22T08:34:53.748Z,46.89
2022-11-22T08:35:53.712Z,46.08
2022-11-22T08:36:53.670Z,54.30
2022-11-22T08:37:53.654Z,49.79
2022-11-22T08:38:53.681Z,47.21
2022-11-22T08:39:53.644Z,59.14
2022-11-22T08:40:53.617Z,56.56
2022-11-22T08:41:53.646Z,63.33
2022-11-22T08:42:53.591Z,61.07
2022-11-22T08:44:26.633Z,54.79
2022-11-22T08:44:53.586Z,51.08
2022-11-22T08:45:53.635Z,58.65
2022-11-22T08:46:53.577Z,56.07
2022-11-22T08:47:53.554Z,65.74
2022-11-22T08:48:53.576Z,52.69
2022-11-22T08:49:53.580Z,48.98
2022-11-22T08:50:53.695Z,56.56
2022-11-22T08:51:53.606Z,55.59
2022-11-22T08:52:53.513Z,49.95
2022-11-22T08:53:53.533Z,53.82
2022-11-22T08:54:53.514Z,53.98
2022-11-22T08:55:53.476Z,55.75
2022-11-22T08:56:53.518Z,55.59
2022-11-22T08:57:53.573Z,46.89
2022-11-22T08:58:53.527Z,67.19
2022-11-22T08:59:53.488Z,62.36
2022-11-22T09:00:53.549Z,55.43
2022-11-22T09:01:53.550Z,54.62
2022-11-22T09:02:53.434Z,59.62
2022-11-22T09:03:53.484Z,55.11
2022-11-22T09:04:53.426Z,60.42
2022-11-22T09:08:24.674Z,52.85
2022-11-22T09:09:08.691Z,55.75
2022-11-22T09:09:55.410Z,51.08
2022-11-22T09:10:53.390Z,58.17
2022-11-22T09:11:53.379Z,55.27
2022-11-22T09:12:53.392Z,61.39
2022-11-22T09:13:53.364Z,48.50
2022-11-22T09:14:53.354Z,56.72
2022-11-22T09:15:53.357Z,61.07
2022-11-22T09:16:53.367Z,64.78
2022-11-22T09:17:53.343Z,58.01
2022-11-22T09:18:53.313Z,67.03
2022-11-22T09:19:53.312Z,58.49
2022-11-22T09:20:53.319Z,47.53
2022-11-22T09:21:53.322Z,53.17
2022-11-22T09:22:53.374Z,58.17
2022-11-22T09:23:53.333Z,55.11
2022-11-22T09:24:53.263Z,46.89
2022-11-22T09:25:53.318Z,62.04
2022-11-22T09:27:25.169Z,54.62
2022-11-22T09:27:53.354Z,60.26
2022-11-22T09:28:53.275Z,58.65
2022-11-22T09:29:53.243Z,48.98
2022-11-22T09:30:53.307Z,51.08
2022-11-22T09:31:53.247Z,48.18
2022-11-22T09:32:53.201Z,61.87
2022-11-22T09:33:53.194Z,56.40
2022-11-22T09:34:53.236Z,57.52
2022-11-22T09:35:53.225Z,48.98
2022-11-22T09:36:53.202Z,59.62
2022-11-22T09:37:53.214Z,48.34
2022-11-22T09:38:53.247Z,54.14
2022-11-22T09:39:53.151Z,58.01
2022-11-22T09:40:54.210Z,59.78
2022-11-22T09:41:53.185Z,60.26
2022-11-22T09:42:53.146Z,57.04
2022-11-22T09:43:53.128Z,50.76
2022-11-22T09:44:53.113Z,49.47
2022-11-22T09:45:53.127Z,60.59
2022-11-22T09:46:53.144Z,47.21
2022-11-22T09:47:53.143Z,61.23
2022-11-22T09:48:53.091Z,57.20
2022-11-22T09:49:53.114Z,55.43
2022-11-22T09:50:53.054Z,56.88
2022-11-22T09:51:53.056Z,55.75
2022-11-22T09:52:53.151Z,54.79
2022-11-22T09:53:53.078Z,58.65
2022-11-22T09:54:53.119Z,50.92
2022-11-22T09:55:53.051Z,59.62
2022-11-22T09:56:53.037Z,56.40
2022-11-22T09:57:53.028Z,54.79
2022-11-22T09:58:53.058Z,50.76
2022-11-22T09:59:53.006Z,63.97
2022-11-22T10:00:53.086Z,58.33
2022-11-22T10:01:53.017Z,49.47
2022-11-22T10:03:00.946Z,49.47
2022-11-22T10:03:55.124Z,61.71
2022-11-22T10:04:52.975Z,60.59
2022-11-22T10:05:52.965Z,54.95
2022-11-22T10:06:52.975Z,63.81
2022-11-22T10:07:52.953Z,49.31
2022-11-22T10:08:53.986Z,57.20
2022-11-22T10:09:52.918Z,54.46
2022-11-22T10:10:53.009Z,61.71
2022-11-22T10:11:52.902Z,55.59
2022-11-22T10:12:52.917Z,48.98
2022-11-22T10:13:53.874Z,60.10
2022-11-22T10:14:53.956Z,51.72
2022-11-22T10:15:52.942Z,56.07
2022-11-22T10:16:52.885Z,61.23
2022-11-22T10:17:52.873Z,53.01
2022-11-22T10:18:52.842Z,46.25
2022-11-22T10:19:52.894Z,46.25
2022-11-22T10:20:52.949Z,60.75
2022-11-22T10:21:52.880Z,60.91
2022-11-22T10:22:52.843Z,55.91
2022-11-22T10:23:52.848Z,56.07
2022-11-22T10:25:24.768Z,54.95
2022-11-22T10:25:52.809Z,64.94
2022-11-22T10:27:25.807Z,53.50
2022-11-22T10:27:56.261Z,53.01
2022-11-22T10:28:54.783Z,53.66
2022-11-22T10:29:52.783Z,58.49
2022-11-22T10:30:53.484Z,49.63
2022-11-22T10:31:52.755Z,58.81
2022-11-22T10:32:52.756Z,56.24
2022-11-22T10:33:52.783Z,54.14
2022-11-22T10:34:52.785Z,61.71
2022-11-22T10:35:52.780Z,58.49
2022-11-22T10:36:52.732Z,60.75
2022-11-22T10:37:52.745Z,57.04
2022-11-22T10:38:52.769Z,55.11
2022-11-22T10:39:52.715Z,61.71
2022-11-22T10:40:52.756Z,63.16
2022-11-22T10:42:24.651Z,53.50
2022-11-22T10:42:52.752Z,53.01
2022-11-22T10:43:52.684Z,58.01
2022-11-22T10:45:24.579Z,55.43
2022-11-22T10:45:52.682Z,50.76
2022-11-22T10:46:56.745Z,53.17
2022-11-22T10:47:53.679Z,58.33
2022-11-22T10:48:52.664Z,50.76
2022-11-22T10:49:52.631Z,60.75
2022-11-22T10:50:52.690Z,62.20
2022-11-22T10:51:52.619Z,59.78
2022-11-22T10:52:52.629Z,51.24
2022-11-22T10:53:52.597Z,51.08
2022-11-22T10:54:52.615Z,50.27
2022-11-22T10:55:52.596Z,63.00
2022-11-22T10:56:52.621Z,61.39
2022-11-22T10:57:52.600Z,54.46
2022-11-22T10:58:52.663Z,64.13
2022-11-22T10:59:52.536Z,53.01
2022-11-22T11:00:52.617Z,55.43
2022-11-22T11:01:52.555Z,53.50
2022-11-22T11:02:52.554Z,61.07
2022-11-22T11:03:52.565Z,60.91
2022-11-22T11:04:52.568Z,56.56
2022-11-22T11:06:22.803Z,57.04
2022-11-22T11:07:11.789Z,59.46
2022-11-22T11:08:04.110Z,61.23
2022-11-22T11:09:47.636Z,59.30
2022-11-22T11:10:10.880Z,60.59
2022-11-22T11:10:54.458Z,62.84
2022-11-22T11:11:53.435Z,54.30
2022-11-22T11:12:52.471Z,53.17
2022-11-22T11:13:52.451Z,59.78
2022-11-22T11:15:24.412Z,52.53
2022-11-22T11:15:56.257Z,48.66
2022-11-22T11:16:53.413Z,52.85
2022-11-22T11:17:52.425Z,52.21
2022-11-22T11:18:52.414Z,67.68
2022-11-22T11:19:52.450Z,57.20
2022-11-22T11:20:52.398Z,48.18
2022-11-22T11:21:52.363Z,53.66
2022-11-22T11:23:13.798Z,48.50
2022-11-22T11:23:54.386Z,57.69
2022-11-22T11:24:52.417Z,52.85
2022-11-22T11:25:52.353Z,63.49
2022-11-22T11:26:52.335Z,61.07
2022-11-22T11:27:52.319Z,48.18
2022-11-22T11:28:52.348Z,60.75
2022-11-22T11:29:52.355Z,55.59
2022-11-22T11:30:52.513Z,61.55
2022-11-22T11:31:52.298Z,55.75
2022-11-22T11:32:53.095Z,52.37
2022-11-22T11:33:52.301Z,59.62
2022-11-22T11:34:52.349Z,61.07
2022-11-22T11:35:52.295Z,55.91
2022-11-22T11:36:52.278Z,57.20
2022-11-22T11:37:52.267Z,52.53
2022-11-22T11:38:52.237Z,57.20
2022-11-22T11:39:52.259Z,55.27
2022-11-22T11:40:52.242Z,58.33
2022-11-22T11:41:52.261Z,63.97
2022-11-22T11:42:52.247Z,53.33
2022-11-22T11:43:53.060Z,56.07
2022-11-22T11:44:52.236Z,53.66
2022-11-22T11:45:52.190Z,58.97
2022-11-22T11:46:52.282Z,51.40
2022-11-22T11:47:52.181Z,57.04
2022-11-22T11:48:52.161Z,48.98
2022-11-22T11:49:52.187Z,56.07
2022-11-22T11:50:52.180Z,56.56
2022-11-22T11:51:52.134Z,57.20
2022-11-22T11:52:52.326Z,51.24
2022-11-22T11:53:52.123Z,53.66
2022-11-22T11:54:52.184Z,52.53
2022-11-22T11:55:52.125Z,54.14
2022-11-22T11:56:52.110Z,56.88
2022-11-22T11:57:52.078Z,56.40
2022-11-22T11:58:52.154Z,54.79
2022-11-22T11:59:52.131Z,51.56
2022-11-22T12:00:52.129Z,64.61
2022-11-22T12:01:52.097Z,49.63
2022-11-22T12:02:52.182Z,50.76
2022-11-22T12:03:52.077Z,58.49
2022-11-22T12:04:52.107Z,54.14
2022-11-22T12:05:52.115Z,54.14
2022-11-22T12:06:52.021Z,62.04
2022-11-22T12:07:52.136Z,51.24
2022-11-22T12:08:52.037Z,59.30
2022-11-22T12:09:52.003Z,54.30
2022-11-22T12:10:52.001Z,56.56
2022-11-22T12:11:51.986Z,56.24
2022-11-22T12:12:52.055Z,53.82
2022-11-22T12:15:53.953Z,55.91
2022-11-22T12:16:51.966Z,47.21
2022-11-22T12:17:51.994Z,61.71
2022-11-22T12:18:52.013Z,56.07
2022-11-22T12:19:51.996Z,50.11
2022-11-22T12:20:51.915Z,54.14
2022-11-22T12:21:51.911Z,52.37
2022-11-22T12:22:51.913Z,58.49
2022-11-22T12:23:51.938Z,64.29
2022-11-22T12:25:09.769Z,50.27
2022-11-22T12:25:53.960Z,53.98
2022-11-22T12:26:52.013Z,49.47
2022-11-22T12:27:51.872Z,54.46
2022-11-22T12:28:51.861Z,53.66
2022-11-22T12:29:51.865Z,60.91
2022-11-22T12:30:51.853Z,60.10
2022-11-22T12:31:51.888Z,50.43
2022-11-22T12:32:51.877Z,50.43
2022-11-22T12:33:51.930Z,61.23
2022-11-22T12:34:51.908Z,54.62
2022-11-22T12:35:51.861Z,53.33
2022-11-22T12:36:51.807Z,49.31
2022-11-22T12:37:51.820Z,54.46
2022-11-22T12:38:51.842Z,60.75
2022-11-22T12:39:51.857Z,58.33
2022-11-22T12:40:51.779Z,60.91
2022-11-22T12:41:51.796Z,52.53
2022-11-22T12:42:51.772Z,61.71
2022-11-22T12:43:51.783Z,52.69
2022-11-22T12:44:51.727Z,51.72
2022-11-22T12:45:51.735Z,54.14
2022-11-22T12:46:51.733Z,54.79
2022-11-22T12:47:51.710Z,51.40
2022-11-22T12:48:23.573Z,62.36
2022-11-22T12:48:51.752Z,48.82
2022-11-22T12:49:51.710Z,56.24
2022-11-22T12:50:51.773Z,69.77
2022-11-22T12:51:51.684Z,60.26
2022-11-22T12:52:51.691Z,58.65
2022-11-22T12:53:51.680Z,50.11
2022-11-22T12:54:51.737Z,48.98
2022-11-22T12:55:51.671Z,54.30
2022-11-22T12:56:51.654Z,54.14
2022-11-22T12:57:51.658Z,58.33
2022-11-22T12:58:51.627Z,57.36
2022-11-22T12:59:51.639Z,62.84
2022-11-22T13:00:51.682Z,59.78
2022-11-22T13:01:51.652Z,53.01
2022-11-22T13:02:55.962Z,52.21
2022-11-22T13:03:53.628Z,52.05
2022-11-22T13:04:51.634Z,64.61
2022-11-22T13:05:51.628Z,53.66
2022-11-22T13:06:51.660Z,62.36
2022-11-22T13:07:51.629Z,64.61
2022-11-22T13:08:54.604Z,54.14
2022-11-22T13:09:53.627Z,57.69
2022-11-22T13:10:51.559Z,61.07